Time;durP1;ratioP1;P1;durP2;ratioP2;P2;SDS_P1;SDS_P2;PMS_P1;PMS_P2;Temp;Humidity;BMP_temperature;BMP_pressure;BME280_temperature;BME280_humidity;BME280_pressure;Samples;Min_cycle;Max_cycle;Signal;HPM_P1;HPM_P2
2022/04/11 00:01:05;;;;;;;11.98;8.10;;;-0.80;99.90;;;;;;5040806;28;20107;-69
2022/04/11 00:03:31;;;;;;;9.00;8.10;;;-0.90;99.90;;;;;;5043038;28;20052;-70
2022/04/11 00:05:58;;;;;;;14.48;7.78;;;-0.90;99.90;;;;;;5022081;28;20095;-69
2022/04/11 00:08:25;;;;;;;13.73;8.60;;;-0.70;99.90;;;;;;5022130;28;20111;-72
2022/04/11 00:10:52;;;;;;;11.68;7.60;;;-0.70;99.90;;;;;;5022356;28;20049;-68
2022/04/11 00:13:19;;;;;;;13.23;8.15;;;-0.70;99.90;;;;;;5018548;28;20422;-70
2022/04/11 00:15:46;;;;;;;11.98;7.93;;;-0.60;99.90;;;;;;5032581;28;20044;-71
2022/04/11 00:18:12;;;;;;;15.73;8.35;;;-0.70;99.90;;;;;;5040044;28;20140;-71
2022/04/11 00:20:39;;;;;;;15.38;8.98;;;-0.80;99.90;;;;;;5041823;28;20641;-70
2022/04/11 00:23:06;;;;;;;13.90;8.40;;;-0.90;99.90;;;;;;5022461;28;20626;-70
2022/04/11 00:25:34;;;;;;;19.02;9.15;;;-0.90;99.90;;;;;;5021783;28;20041;-70
2022/04/11 00:28:01;;;;;;;15.50;8.25;;;-0.90;99.90;;;;;;5034020;28;20242;-70
2022/04/11 00:30:28;;;;;;;16.90;8.88;;;-1.00;99.90;;;;;;5021988;28;20542;-70
2022/04/11 00:32:54;;;;;;;13.32;8.93;;;-1.10;99.90;;;;;;5023260;28;20049;-72
2022/04/11 00:35:22;;;;;;;16.13;9.48;;;-1.00;99.90;;;;;;5023641;28;20080;-71
2022/04/11 00:37:48;;;;;;;15.65;10.10;;;-0.90;99.90;;;;;;5021857;28;20061;-72
2022/04/11 00:40:15;;;;;;;19.52;9.65;;;-0.80;99.90;;;;;;5021017;28;20065;-71
2022/04/11 00:42:42;;;;;;;12.10;9.23;;;-1.00;99.90;;;;;;5031770;22;20098;-73
2022/04/11 00:45:09;;;;;;;11.23;8.75;;;-1.10;99.90;;;;;;5042770;28;20048;-72
2022/04/11 00:47:36;;;;;;;19.10;10.45;;;-1.20;99.90;;;;;;5042590;28;20658;-72
2022/04/11 00:50:08;;;;;;;17.90;11.63;;;-1.20;99.90;;;;;;5054622;28;20122;-72
2022/04/11 00:52:43;;;;;;;11.05;9.02;;;-1.30;99.90;;;;;;5052724;28;20490;-72
2022/04/11 00:55:11;;;;;;;19.25;11.02;;;-1.30;99.90;;;;;;5042213;28;20124;-73
2022/04/11 00:57:39;;;;;;;18.90;11.55;;;-1.20;99.90;;;;;;5060434;28;20041;-72
2022/04/11 01:00:09;;;;;;;19.02;11.73;;;-1.20;99.90;;;;;;5060964;28;20102;-72
2022/04/11 01:02:36;;;;;;;11.95;10.13;;;-1.30;99.90;;;;;;5085748;28;20089;-72
2022/04/11 01:05:12;;;;;;;10.68;9.38;;;-1.20;99.90;;;;;;5087195;28;20045;-73
2022/04/11 01:07:40;;;;;;;14.30;10.52;;;-1.30;99.90;;;;;;5071077;28;20053;-72
2022/04/11 01:10:08;;;;;;;16.73;11.55;;;-1.30;99.90;;;;;;5082940;28;20052;-72
2022/04/11 01:12:35;;;;;;;14.55;11.05;;;-1.40;99.90;;;;;;5066501;28;20047;-73
2022/04/11 01:15:02;;;;;;;14.10;10.98;;;-1.40;99.90;;;;;;5058685;28;20044;-72
2022/04/11 01:17:37;;;;;;;16.75;11.10;;;-1.40;99.90;;;;;;5063428;28;20063;-72
2022/04/11 01:20:10;;;;;;;12.73;10.90;;;-1.40;99.90;;;;;;5063219;28;20059;-72
2022/04/11 01:22:41;;;;;;;14.30;10.95;;;-1.40;99.90;;;;;;5064888;28;20533;-71
2022/04/11 01:25:09;;;;;;;15.05;10.13;;;-1.40;99.90;;;;;;5049173;28;20079;-71
2022/04/11 01:27:38;;;;;;;18.05;11.00;;;-1.10;99.90;;;;;;5062788;28;20052;-71
2022/04/11 01:30:07;;;;;;;15.65;10.95;;;-1.10;99.90;;;;;;5059152;28;20057;-72
2022/04/11 01:32:38;;;;;;;19.25;10.57;;;-1.00;99.90;;;;;;5061802;28;20045;-71
2022/04/11 01:35:18;;;;;;;22.85;11.18;;;-0.90;99.90;;;;;;5064575;28;20045;-70
2022/04/11 01:37:44;;;;;;;15.65;10.48;;;-0.90;99.90;;;;;;5066522;28;20131;-71
2022/04/11 01:40:11;;;;;;;20.00;10.60;;;-1.00;99.90;;;;;;5047876;28;20055;-71
2022/04/11 01:42:38;;;;;;;16.33;10.63;;;-1.10;99.90;;;;;;5065419;28;20048;-72
2022/04/11 01:45:09;;;;;;;14.73;10.25;;;-1.20;99.90;;;;;;5062929;28;20453;-72
2022/04/11 01:47:39;;;;;;;15.30;10.48;;;-1.20;99.90;;;;;;5064491;28;20208;-71
2022/04/11 01:50:07;;;;;;;14.05;9.57;;;-1.20;99.90;;;;;;5079641;28;20118;-72
2022/04/11 01:52:34;;;;;;;15.70;10.43;;;-1.20;99.90;;;;;;5067162;28;20522;-72
2022/04/11 01:55:03;;;;;;;18.65;10.23;;;-1.20;99.90;;;;;;5056624;28;20045;-72
2022/04/11 01:57:43;;;;;;;16.15;10.25;;;-1.30;99.90;;;;;;5078399;28;20114;-71
2022/04/11 02:00:10;;;;;;;19.08;11.52;;;-1.40;99.90;;;;;;5064442;28;20098;-71
2022/04/11 02:02:44;;;;;;;15.20;11.73;;;-1.50;99.90;;;;;;5062790;28;20052;-71
2022/04/11 02:05:11;;;;;;;17.83;11.52;;;-1.40;99.90;;;;;;5063734;28;20722;-71
2022/04/11 02:07:39;;;;;;;18.98;11.75;;;-1.40;99.90;;;;;;5065217;28;20577;-72
2022/04/11 02:10:06;;;;;;;18.52;11.70;;;-1.30;99.90;;;;;;5064164;28;20577;-72
2022/04/11 02:12:34;;;;;;;16.80;13.13;;;-1.40;99.90;;;;;;5068203;28;20215;-71
2022/04/11 02:15:00;;;;;;;21.60;12.38;;;-1.40;99.90;;;;;;5048164;28;20068;-72
2022/04/11 02:17:27;;;;;;;13.50;11.00;;;-1.50;99.90;;;;;;5048714;28;20667;-72
2022/04/11 02:19:54;;;;;;;16.67;11.93;;;-1.50;99.90;;;;;;5065066;28;20048;-71
2022/04/11 02:22:21;;;;;;;17.05;11.13;;;-1.40;99.90;;;;;;5058786;28;20059;-71
2022/04/11 02:24:47;;;;;;;15.88;10.55;;;-1.20;99.90;;;;;;5066164;28;20056;-72
2022/04/11 02:27:14;;;;;;;11.68;9.18;;;-1.20;99.90;;;;;;5063866;28;20532;-72
2022/04/11 02:29:41;;;;;;;12.48;9.35;;;-1.20;99.90;;;;;;5047351;28;20044;-71
2022/04/11 02:32:08;;;;;;;16.63;8.82;;;-1.20;99.90;;;;;;5062445;28;20043;-71
2022/04/11 02:34:35;;;;;;;11.88;8.93;;;-1.20;99.90;;;;;;5064283;28;20059;-72
2022/04/11 02:37:02;;;;;;;11.68;8.60;;;-1.30;99.90;;;;;;5064179;28;20040;-72
2022/04/11 02:39:28;;;;;;;10.00;8.25;;;-1.50;99.90;;;;;;5063343;28;20127;-71
2022/04/11 02:41:55;;;;;;;11.10;9.15;;;-1.40;99.90;;;;;;5062998;28;20051;-72
2022/04/11 02:44:22;;;;;;;15.10;9.68;;;-1.50;99.90;;;;;;5082952;28;20131;-72
2022/04/11 02:46:49;;;;;;;15.77;9.43;;;-1.50;99.90;;;;;;5063526;28;20434;-71
2022/04/11 02:49:16;;;;;;;12.13;8.90;;;-1.20;99.90;;;;;;5071124;28;20052;-71
2022/04/11 02:51:49;;;;;;;13.23;8.88;;;-1.20;99.90;;;;;;5072539;28;20049;-72
2022/04/11 02:54:17;;;;;;;10.63;8.88;;;-1.30;99.90;;;;;;5063275;28;20060;-72
2022/04/11 02:56:46;;;;;;;12.38;9.25;;;-1.40;99.90;;;;;;5063199;28;20044;-71
2022/04/11 02:59:13;;;;;;;14.02;8.85;;;-1.40;99.90;;;;;;5062341;28;20690;-72
2022/04/11 03:01:45;;;;;;;11.60;8.73;;;-1.30;99.90;;;;;;5061695;28;20493;-71
2022/04/11 03:04:13;;;;;;;13.80;9.65;;;-1.10;99.90;;;;;;5062962;28;20144;-71
2022/04/11 03:06:53;;;;;;;9.82;8.77;;;-1.20;99.90;;;;;;5063203;28;20161;-71
2022/04/11 03:09:20;;;;;;;13.27;10.00;;;-1.10;99.90;;;;;;5062690;28;20076;-72
2022/04/11 03:11:48;;;;;;;10.82;9.55;;;-1.10;99.90;;;;;;5061844;28;20533;-71
2022/04/11 03:14:15;;;;;;;15.38;10.60;;;-1.30;99.90;;;;;;5064016;28;20060;-72
2022/04/11 03:16:42;;;;;;;12.55;9.40;;;-1.30;99.90;;;;;;5062450;28;20045;-71
2022/04/11 03:19:10;;;;;;;15.07;9.63;;;-1.20;99.90;;;;;;5044738;28;20089;-72
2022/04/11 03:21:37;;;;;;;9.85;8.95;;;-1.30;99.90;;;;;;5050919;28;20671;-72
2022/04/11 03:24:10;;;;;;;10.95;9.85;;;-1.30;99.90;;;;;;5063269;28;20424;-71
2022/04/11 03:26:37;;;;;;;11.23;9.70;;;-1.10;99.90;;;;;;5062001;28;20526;-71
2022/04/11 03:29:07;;;;;;;18.55;9.93;;;-1.00;99.90;;;;;;5062503;28;20053;-72
2022/04/11 03:31:34;;;;;;;14.98;10.02;;;-1.10;99.90;;;;;;5062157;28;20048;-71
2022/04/11 03:34:02;;;;;;;13.27;10.30;;;-1.10;99.90;;;;;;5061219;28;20569;-71
2022/04/11 03:36:29;;;;;;;10.63;9.60;;;-1.00;99.90;;;;;;5062882;28;20033;-72
2022/04/11 03:38:56;;;;;;;12.82;11.23;;;-1.10;99.90;;;;;;5061524;28;20349;-71
2022/04/11 03:41:25;;;;;;;18.05;10.65;;;-1.00;99.90;;;;;;5062458;28;20051;-71
2022/04/11 03:44:01;;;;;;;15.48;10.23;;;-0.90;99.90;;;;;;5065664;28;20503;-72
2022/04/11 03:46:28;;;;;;;9.88;8.95;;;-0.90;99.90;;;;;;5062155;28;20055;-72
2022/04/11 03:48:55;;;;;;;14.13;10.30;;;-1.10;99.90;;;;;;5063893;28;20493;-72
2022/04/11 03:51:22;;;;;;;13.70;9.90;;;-1.00;99.90;;;;;;5062140;28;20048;-72
2022/04/11 03:53:50;;;;;;;10.68;9.15;;;-1.10;99.90;;;;;;5062192;28;20070;-72
2022/04/11 03:56:17;;;;;;;11.00;9.93;;;-1.00;99.90;;;;;;5062650;28;20087;-72
2022/04/11 03:58:44;;;;;;;13.00;10.68;;;-0.80;99.90;;;;;;5062431;28;20101;-71
2022/04/11 04:01:12;;;;;;;15.60;11.00;;;-0.70;99.90;;;;;;5045778;28;20062;-71
2022/04/11 04:03:40;;;;;;;10.88;9.75;;;-0.60;99.90;;;;;;5054877;28;20053;-71
2022/04/11 04:06:11;;;;;;;10.65;9.70;;;-0.60;99.90;;;;;;5042369;28;20388;-71
2022/04/11 04:08:41;;;;;;;12.30;11.27;;;-0.50;99.90;;;;;;5047588;28;20049;-72
2022/04/11 04:11:14;;;;;;;12.65;11.63;;;-0.60;99.90;;;;;;5067139;28;20048;-72
2022/04/11 04:13:47;;;;;;;13.45;12.20;;;-0.80;99.90;;;;;;5057787;28;20072;-72
2022/04/11 04:16:15;;;;;;;13.68;12.65;;;-0.90;99.90;;;;;;5062799;28;20049;-72
2022/04/11 04:18:49;;;;;;;14.27;12.85;;;-1.10;99.90;;;;;;5047435;28;20145;-70
2022/04/11 04:21:18;;;;;;;14.93;13.63;;;-1.20;99.90;;;;;;5046160;28;20071;-71
2022/04/11 04:23:46;;;;;;;14.57;13.38;;;-1.20;99.90;;;;;;5045913;28;20053;-71
2022/04/11 04:26:13;;;;;;;14.77;13.75;;;-1.30;99.90;;;;;;5046147;28;20044;-72
2022/04/11 04:28:40;;;;;;;16.15;14.50;;;-1.40;99.90;;;;;;5063986;28;20088;-71
2022/04/11 04:31:06;;;;;;;16.13;14.93;;;-1.40;99.90;;;;;;5061920;28;20040;-72
2022/04/11 04:33:36;;;;;;;15.57;14.18;;;-1.50;99.90;;;;;;5046380;28;20059;-72
2022/04/11 04:36:07;;;;;;;16.55;15.00;;;-1.50;99.90;;;;;;5062836;28;20472;-71
2022/04/11 04:38:35;;;;;;;15.88;14.70;;;-1.40;99.90;;;;;;5061889;28;20044;-72
2022/04/11 04:41:02;;;;;;;15.10;14.02;;;-1.40;99.90;;;;;;5056827;28;20040;-72
2022/04/11 04:43:30;;;;;;;15.93;14.55;;;-1.50;99.90;;;;;;5062097;28;20098;-71
2022/04/11 04:45:58;;;;;;;16.75;15.27;;;-1.50;99.90;;;;;;5040622;28;20087;-71
2022/04/11 04:48:32;;;;;;;20.77;17.20;;;-1.60;99.90;;;;;;5066603;28;20145;-71
2022/04/11 04:50:59;;;;;;;21.02;19.20;;;-1.60;99.90;;;;;;5078464;28;20048;-71
2022/04/11 04:53:29;;;;;;;18.58;16.77;;;-1.60;99.90;;;;;;5047586;28;20053;-71
2022/04/11 04:55:59;;;;;;;16.75;15.15;;;-1.60;99.90;;;;;;5059254;28;20086;-72
2022/04/11 04:58:26;;;;;;;16.80;15.40;;;-1.30;99.90;;;;;;5041821;28;20067;-71
2022/04/11 05:00:53;;;;;;;16.27;14.48;;;-1.20;99.90;;;;;;5041682;28;20309;-71
2022/04/11 05:03:23;;;;;;;14.85;13.85;;;-1.00;99.90;;;;;;5042491;28;20053;-71
2022/04/11 05:05:50;;;;;;;15.43;13.85;;;-1.10;99.90;;;;;;5050234;28;20041;-72
2022/04/11 05:08:17;;;;;;;15.32;14.13;;;-1.20;99.90;;;;;;5060261;28;20045;-71
2022/04/11 05:10:44;;;;;;;14.98;13.88;;;-1.20;99.90;;;;;;5058723;28;20048;-71
2022/04/11 05:13:11;;;;;;;14.88;13.80;;;-1.20;99.90;;;;;;5056706;28;20291;-72
2022/04/11 05:15:42;;;;;;;16.67;15.27;;;-1.20;99.90;;;;;;5041721;28;20090;-71
2022/04/11 05:18:14;;;;;;;16.48;14.98;;;-1.30;99.90;;;;;;5060514;28;20053;-72
2022/04/11 05:20:42;;;;;;;17.10;15.73;;;-1.30;99.90;;;;;;5060422;28;20158;-71
2022/04/11 05:23:10;;;;;;;17.40;15.98;;;-1.30;99.90;;;;;;5044494;28;20057;-71
2022/04/11 05:25:38;;;;;;;17.90;16.38;;;-1.30;99.90;;;;;;5059624;28;20045;-71
2022/04/11 05:28:05;;;;;;;17.40;15.88;;;-1.20;99.90;;;;;;5060507;28;20048;-72
2022/04/11 05:30:35;;;;;;;16.70;15.43;;;-1.00;99.90;;;;;;5059824;28;20048;-71
2022/04/11 05:33:07;;;;;;;17.17;15.98;;;-1.10;99.90;;;;;;5060678;28;20063;-71
2022/04/11 05:35:34;;;;;;;16.92;15.43;;;-1.00;99.90;;;;;;5060560;28;20117;-71
2022/04/11 05:38:07;;;;;;;16.75;15.30;;;-1.00;99.90;;;;;;5040831;28;20045;-71
2022/04/11 05:40:36;;;;;;;16.60;15.48;;;-1.00;99.90;;;;;;5060161;28;20110;-71
2022/04/11 05:43:10;;;;;;;16.40;14.93;;;-0.80;99.90;;;;;;5062352;28;20049;-71
2022/04/11 05:45:36;;;;;;;15.18;13.90;;;-0.60;99.90;;;;;;5059616;28;20052;-72
2022/04/11 05:48:04;;;;;;;14.65;13.45;;;-0.40;99.90;;;;;;5045390;28;20731;-72
2022/04/11 05:50:32;;;;;;;14.02;12.70;;;-0.40;99.90;;;;;;5078232;28;20148;-72
2022/04/11 05:53:00;;;;;;;14.20;12.88;;;-0.30;99.90;;;;;;5064566;28;20063;-71
2022/04/11 05:55:27;;;;;;;13.27;11.98;;;-0.30;99.90;;;;;;5063729;28;20053;-71
2022/04/11 05:57:55;;;;;;;13.10;11.90;;;-0.20;99.90;;;;;;5063572;28;20498;-71
2022/04/11 06:00:22;;;;;;;14.82;12.65;;;-0.30;99.90;;;;;;5062770;28;20132;-71
2022/04/11 06:02:50;;;;;;;14.35;12.02;;;-0.20;99.90;;;;;;5063640;28;20044;-71
2022/04/11 06:05:19;;;;;;;14.15;12.88;;;-0.10;99.90;;;;;;5063996;28;20553;-74
2022/04/11 06:07:46;;;;;;;13.75;12.57;;;-0.10;99.90;;;;;;5062232;28;20044;-72
2022/04/11 06:10:13;;;;;;;14.45;13.45;;;0.00;99.90;;;;;;5063106;28;20094;-71
2022/04/11 06:12:41;;;;;;;14.45;13.55;;;0.20;99.90;;;;;;5065921;28;20071;-71
2022/04/11 06:15:08;;;;;;;15.07;13.68;;;0.40;99.90;;;;;;5063483;28;20068;-71
2022/04/11 06:17:35;;;;;;;15.20;13.93;;;0.50;99.90;;;;;;5062553;28;20053;-71
2022/04/11 06:20:02;;;;;;;15.63;14.10;;;0.60;99.90;;;;;;5061605;28;20044;-70
2022/04/11 06:22:31;;;;;;;15.27;13.75;;;0.80;99.90;;;;;;5063499;28;20048;-73
2022/04/11 06:25:01;;;;;;;14.73;13.60;;;1.00;99.90;;;;;;5044255;28;20113;-71
2022/04/11 06:27:30;;;;;;;15.93;14.65;;;1.10;99.90;;;;;;5056908;28;20619;-71
2022/04/11 06:29:56;;;;;;;16.60;15.05;;;1.10;99.90;;;;;;5044976;28;20060;-70
2022/04/11 06:32:28;;;;;;;18.35;15.32;;;1.30;99.90;;;;;;5054276;28;20530;-71
2022/04/11 06:34:55;;;;;;;16.20;14.93;;;1.60;99.90;;;;;;5041055;28;20044;-71
2022/04/11 06:37:24;;;;;;;21.17;19.08;;;1.70;99.90;;;;;;5046306;28;20142;-71
2022/04/11 06:39:52;;;;;;;17.98;16.42;;;1.80;99.90;;;;;;5060413;28;20051;-71
2022/04/11 06:45:31;;;;;;;19.55;18.13;;;2.40;99.90;;;;;;4974192;28;20125;-71
2022/04/11 06:48:02;;;;;;;21.00;19.30;;;2.50;99.90;;;;;;4960047;28;20053;-69
2022/04/11 06:50:29;;;;;;;22.00;20.50;;;2.70;99.90;;;;;;4956440;28;20054;-70
2022/04/11 06:52:56;;;;;;;20.30;18.90;;;3.00;99.90;;;;;;4972011;28;20054;-70
2022/04/11 06:55:23;;;;;;;22.08;20.70;;;3.20;99.90;;;;;;4976344;28;20050;-70
2022/04/11 06:57:49;;;;;;;24.60;22.77;;;3.40;99.90;;;;;;4976219;28;20089;-70
2022/04/11 07:00:17;;;;;;;25.90;22.95;;;3.60;99.90;;;;;;4974433;28;20046;-70
2022/04/11 07:02:44;;;;;;;24.20;22.92;;;3.70;99.90;;;;;;4958355;28;20061;-71
2022/04/11 07:05:11;;;;;;;23.15;21.65;;;3.90;99.90;;;;;;4959057;28;20130;-72
2022/04/11 07:07:39;;;;;;;25.40;23.75;;;4.20;99.90;;;;;;4976274;28;20097;-72
2022/04/11 07:10:07;;;;;;;23.52;22.33;;;4.60;99.90;;;;;;4975294;28;20080;-73
2022/04/11 07:12:41;;;;;;;24.70;23.40;;;4.90;99.90;;;;;;4972694;28;20705;-72
2022/04/11 07:15:09;;;;;;;23.65;22.35;;;5.40;99.90;;;;;;4975854;28;20058;-73
2022/04/11 07:17:36;;;;;;;26.02;24.63;;;5.80;99.90;;;;;;4977855;28;20062;-72
2022/04/11 07:20:03;;;;;;;26.05;24.58;;;6.10;99.90;;;;;;4974758;28;20049;-73
2022/04/11 07:22:30;;;;;;;25.55;24.00;;;6.60;99.90;;;;;;4977268;28;20050;-73
2022/04/11 07:24:56;;;;;;;23.50;22.30;;;6.90;99.90;;;;;;4956221;28;20050;-73
2022/04/11 07:27:23;;;;;;;23.48;22.17;;;7.30;99.90;;;;;;4959707;28;20042;-73
2022/04/11 07:29:50;;;;;;;23.30;21.90;;;7.50;99.90;;;;;;4975334;28;20068;-73
2022/04/11 07:32:17;;;;;;;23.52;22.02;;;8.00;99.90;;;;;;4976456;28;20054;-73
2022/04/11 07:34:43;;;;;;;23.63;22.05;;;8.30;99.90;;;;;;4978405;28;20418;-71
2022/04/11 07:37:11;;;;;;;23.55;21.90;;;8.60;99.90;;;;;;4955143;28;20050;-72
2022/04/11 07:39:38;;;;;;;22.73;21.38;;;8.90;99.90;;;;;;4978924;28;20054;-75
2022/04/11 07:42:05;;;;;;;24.42;23.08;;;9.20;99.90;;;;;;4996780;28;20143;-72
2022/04/11 07:44:32;;;;;;;22.92;21.48;;;9.40;99.90;;;;;;4987664;28;20046;-72
2022/04/11 07:46:59;;;;;;;23.63;22.38;;;9.90;99.90;;;;;;4977304;28;20053;-73
2022/04/11 07:49:26;;;;;;;25.35;23.85;;;9.90;99.90;;;;;;4959810;28;20050;-74
2022/04/11 07:51:52;;;;;;;25.00;23.35;;;10.00;99.90;;;;;;4976808;28;20132;-73
2022/04/11 07:54:19;;;;;;;24.25;22.95;;;10.10;99.90;;;;;;4978195;28;20038;-73
2022/04/11 07:56:46;;;;;;;25.73;24.13;;;10.00;99.90;;;;;;4976869;28;20042;-74
2022/04/11 07:59:13;;;;;;;26.50;24.92;;;10.30;99.90;;;;;;4974391;28;20324;-73
2022/04/11 08:01:40;;;;;;;26.65;24.95;;;10.20;99.90;;;;;;4958731;28;20057;-73
2022/04/11 08:04:07;;;;;;;26.42;24.30;;;10.10;99.90;;;;;;4978076;28;20137;-75
2022/04/11 08:06:33;;;;;;;25.02;23.63;;;10.10;99.90;;;;;;4977946;28;20116;-73
2022/04/11 08:09:00;;;;;;;23.88;22.27;;;10.10;99.90;;;;;;4975698;28;20574;-73
2022/04/11 08:11:27;;;;;;;24.52;23.23;;;10.30;99.90;;;;;;4958844;28;20038;-76
2022/04/11 08:13:54;;;;;;;28.23;26.15;;;10.40;99.90;;;;;;4976726;28;20046;-75
2022/04/11 08:16:21;;;;;;;26.30;24.60;;;10.50;99.90;;;;;;4976695;28;20042;-73
2022/04/11 08:18:47;;;;;;;26.80;24.77;;;10.30;99.90;;;;;;4977484;28;20132;-73
2022/04/11 08:21:14;;;;;;;26.88;25.17;;;10.20;99.90;;;;;;4967498;28;20125;-74
2022/04/11 08:23:41;;;;;;;26.65;25.02;;;10.00;99.90;;;;;;4972862;28;20519;-74
2022/04/11 08:26:08;;;;;;;26.92;25.23;;;10.00;99.90;;;;;;4959964;28;20053;-74
2022/04/11 08:28:35;;;;;;;27.33;25.10;;;9.90;99.90;;;;;;4959533;28;20209;-72
2022/04/11 08:31:02;;;;;;;27.27;25.67;;;9.90;99.90;;;;;;4983568;28;20046;-75
2022/04/11 08:33:29;;;;;;;26.08;24.33;;;10.10;99.90;;;;;;4965044;28;20069;-74
2022/04/11 08:35:56;;;;;;;25.50;23.98;;;10.30;99.90;;;;;;4975604;28;20046;-73
2022/04/11 08:38:23;;;;;;;26.50;25.00;;;10.60;99.90;;;;;;4975955;28;20710;-74
2022/04/11 08:40:52;;;;;;;27.85;25.98;;;10.80;99.90;;;;;;4992849;28;20104;-75
2022/04/11 08:43:25;;;;;;;28.08;26.45;;;11.10;99.90;;;;;;4971276;28;20038;-75
2022/04/11 08:45:57;;;;;;;29.25;27.35;;;11.30;99.90;;;;;;4976840;28;20069;-76
2022/04/11 08:48:24;;;;;;;28.75;27.08;;;11.40;99.90;;;;;;4976952;28;20576;-74
2022/04/11 08:50:51;;;;;;;27.50;25.80;;;11.40;99.90;;;;;;4975588;28;20047;-75
2022/04/11 08:53:22;;;;;;;28.05;26.48;;;11.70;99.90;;;;;;4955681;28;20053;-75
2022/04/11 08:55:51;;;;;;;29.05;27.17;;;11.80;99.90;;;;;;4963200;28;20414;-74
2022/04/11 08:58:18;;;;;;;26.30;24.63;;;11.90;99.90;;;;;;4977548;28;20046;-75
2022/04/11 09:00:45;;;;;;;25.77;24.17;;;11.90;99.90;;;;;;4958866;28;20038;-75
2022/04/11 09:03:12;;;;;;;27.63;25.50;;;12.30;99.90;;;;;;4978334;28;20550;-75
2022/04/11 09:05:39;;;;;;;26.58;24.98;;;12.60;98.00;;;;;;4945655;28;20062;-75
2022/04/11 09:08:06;;;;;;;27.02;25.00;;;12.10;96.50;;;;;;4959956;28;20062;-75
2022/04/11 09:10:38;;;;;;;27.23;25.27;;;12.10;99.90;;;;;;4973136;28;20042;-76
2022/04/11 09:13:07;;;;;;;29.38;27.30;;;12.40;98.10;;;;;;4961085;28;20074;-75
2022/04/11 09:15:47;;;;;;;29.63;27.52;;;12.40;96.00;;;;;;4956427;28;20129;-76
2022/04/11 09:18:14;;;;;;;29.00;27.15;;;12.40;95.70;;;;;;4992441;28;20054;-76
2022/04/11 09:20:42;;;;;;;29.17;27.17;;;12.20;95.90;;;;;;4977287;28;20138;-74
2022/04/11 09:23:19;;;;;;;30.25;28.35;;;12.30;95.50;;;;;;4978937;28;20035;-74
2022/04/11 09:25:46;;;;;;;29.48;27.23;;;12.30;95.20;;;;;;4980327;28;20046;-75
2022/04/11 09:28:13;;;;;;;31.35;29.25;;;12.60;96.40;;;;;;4949985;28;20042;-76
2022/04/11 09:30:43;;;;;;;31.13;28.83;;;12.70;95.70;;;;;;4980965;28;20042;-75
2022/04/11 09:33:11;;;;;;;31.05;29.05;;;12.70;95.20;;;;;;4983432;28;20458;-73
2022/04/11 09:35:44;;;;;;;31.08;29.23;;;12.60;96.00;;;;;;4987307;28;20518;-76
2022/04/11 09:38:19;;;;;;;30.63;28.40;;;12.70;95.60;;;;;;4962526;28;20443;-76
2022/04/11 09:40:49;;;;;;;29.77;28.05;;;12.90;96.50;;;;;;4996056;28;20046;-76
2022/04/11 09:43:24;;;;;;;30.02;28.05;;;12.90;96.10;;;;;;4976392;28;20557;-76
2022/04/11 09:45:51;;;;;;;29.90;28.08;;;12.90;96.70;;;;;;4981159;28;20054;-74
2022/04/11 09:48:24;;;;;;;29.55;27.75;;;12.70;96.40;;;;;;4982309;28;20066;-76
2022/04/11 09:50:53;;;;;;;29.60;27.60;;;12.40;96.50;;;;;;4978745;28;20054;-75
2022/04/11 09:53:23;;;;;;;30.20;28.23;;;12.30;96.60;;;;;;4980976;28;20066;-74
2022/04/11 09:55:53;;;;;;;31.45;29.55;;;11.80;98.40;;;;;;4981146;28;20042;-76
2022/04/11 09:58:24;;;;;;;31.27;29.02;;;11.60;98.70;;;;;;4980469;28;20096;-75
2022/04/11 10:00:51;;;;;;;29.13;27.45;;;11.80;99.30;;;;;;4963320;28;20084;-76
2022/04/11 10:03:23;;;;;;;30.60;28.80;;;11.90;98.40;;;;;;4964085;28;20487;-75
2022/04/11 10:05:50;;;;;;;31.63;29.73;;;12.30;97.20;;;;;;4980395;28;20499;-75
2022/04/11 10:08:18;;;;;;;29.73;27.90;;;12.20;99.30;;;;;;4979692;28;20046;-74
2022/04/11 10:10:45;;;;;;;31.25;29.10;;;12.50;99.90;;;;;;4975291;28;20038;-74
2022/04/11 10:13:15;;;;;;;31.73;29.63;;;12.30;99.40;;;;;;4966011;28;20054;-75
2022/04/11 10:15:48;;;;;;;30.50;28.55;;;11.90;98.70;;;;;;4979236;28;20045;-76
2022/04/11 10:18:21;;;;;;;30.13;28.13;;;11.60;98.70;;;;;;4980145;28;20173;-74
2022/04/11 10:20:51;;;;;;;31.27;29.58;;;11.60;97.20;;;;;;4980242;28;20046;-77
2022/04/11 10:23:46;;;;;;;31.65;29.55;;;11.70;98.00;;;;;;4966373;28;20069;-76
2022/04/11 10:26:15;;;;;;;30.58;28.63;;;11.60;96.90;;;;;;4977320;28;20522;-75
2022/04/11 10:28:45;;;;;;;32.55;30.45;;;11.50;98.10;;;;;;4960980;28;20098;-74
2022/04/11 10:31:13;;;;;;;29.85;28.05;;;11.80;97.60;;;;;;4978279;28;20050;-75
2022/04/11 10:33:52;;;;;;;30.70;28.70;;;12.30;98.50;;;;;;4962496;28;20064;-76
2022/04/11 10:36:30;;;;;;;32.53;30.42;;;12.50;97.40;;;;;;4978410;28;20050;-77
2022/04/11 10:39:15;;;;;;;31.25;29.08;;;12.30;98.00;;;;;;4977974;28;20594;-76
2022/04/11 10:41:54;;;;;;;30.05;28.02;;;12.80;99.20;;;;;;4980483;28;20153;-81
2022/04/11 10:44:37;;;;;;;31.05;29.02;;;12.50;97.90;;;;;;4980169;28;20054;-76
2022/04/11 10:47:10;;;;;;;30.75;28.75;;;12.10;98.00;;;;;;4975205;28;20046;-76
2022/04/11 10:49:49;;;;;;;30.20;28.20;;;12.10;98.10;;;;;;4980080;28;20050;-77
2022/04/11 10:52:35;;;;;;;30.63;28.60;;;12.20;97.90;;;;;;4979530;28;20729;-78
2022/04/11 10:55:17;;;;;;;32.08;29.88;;;12.70;97.00;;;;;;4963519;28;20133;-76
2022/04/11 10:57:48;;;;;;;28.17;26.38;;;13.00;96.30;;;;;;4962596;28;20137;-78
2022/04/11 11:00:19;;;;;;;30.00;28.08;;;13.00;96.50;;;;;;4979359;28;20054;-77
2022/04/11 11:02:50;;;;;;;29.75;27.73;;;12.90;95.90;;;;;;4978512;28;20050;-77
2022/04/11 11:05:39;;;;;;;30.35;28.42;;;12.80;96.90;;;;;;4979590;28;20078;-76
2022/04/11 11:08:11;;;;;;;28.40;26.65;;;13.00;97.80;;;;;;4978028;28;20068;-77
2022/04/11 11:10:49;;;;;;;28.67;26.95;;;12.80;94.90;;;;;;4972376;28;20053;-76
2022/04/11 11:13:26;;;;;;;29.77;28.02;;;12.70;95.80;;;;;;4980016;28;20056;-75
2022/04/11 11:15:55;;;;;;;29.73;27.70;;;12.60;96.00;;;;;;4946740;28;20041;-77
2022/04/11 11:18:22;;;;;;;31.15;29.17;;;12.50;96.50;;;;;;4971339;28;20055;-77
2022/04/11 11:20:55;;;;;;;31.23;29.05;;;12.00;97.70;;;;;;4976241;28;20073;-73
2022/04/11 11:23:23;;;;;;;29.85;27.83;;;12.30;99.90;;;;;;4963357;28;20080;-77
2022/04/11 11:25:50;;;;;;;29.65;27.73;;;12.30;99.00;;;;;;4978584;28;20070;-76
2022/04/11 11:28:17;;;;;;;28.63;26.80;;;12.20;98.60;;;;;;4971197;28;20038;-76
2022/04/11 11:30:45;;;;;;;30.83;28.67;;;12.20;99.80;;;;;;4967588;28;20058;-76
2022/04/11 11:33:17;;;;;;;32.00;29.95;;;12.40;99.70;;;;;;4977435;28;20045;-76
2022/04/11 11:35:50;;;;;;;30.92;28.55;;;12.40;98.80;;;;;;4979746;28;20046;-76
2022/04/11 11:38:24;;;;;;;31.05;29.15;;;12.10;99.90;;;;;;4962020;28;20109;-78
2022/04/11 11:40:56;;;;;;;28.90;27.02;;;12.70;99.90;;;;;;4958391;28;20081;-76
2022/04/11 11:43:25;;;;;;;31.20;29.25;;;12.90;98.30;;;;;;4949510;28;20579;-77
2022/04/11 11:45:57;;;;;;;31.25;28.92;;;12.50;98.20;;;;;;4977573;28;20050;-76
2022/04/11 11:48:26;;;;;;;30.70;28.48;;;12.40;99.70;;;;;;4980130;28;20116;-78
2022/04/11 11:50:58;;;;;;;31.13;28.75;;;12.90;99.50;;;;;;4977464;28;20057;-77
2022/04/11 11:53:26;;;;;;;31.73;29.52;;;12.80;97.80;;;;;;4961855;28;20098;-77
2022/04/11 11:55:59;;;;;;;30.83;28.67;;;12.60;98.50;;;;;;4962565;28;20042;-77
2022/04/11 11:58:35;;;;;;;29.88;27.98;;;12.60;99.70;;;;;;4978659;28;20058;-77
2022/04/11 12:01:10;;;;;;;30.52;28.23;;;12.80;99.90;;;;;;4976516;28;20126;-76
2022/04/11 12:06:23;;;;;;;;;;;13.10;97.90;;;;;;4978759;28;20046;-77
2022/04/11 12:09:01;;;;;;;28.55;26.95;;;13.00;98.60;;;;;;4976292;28;19932;-77
2022/04/11 12:11:29;;;;;;;28.05;26.23;;;13.00;98.20;;;;;;4977323;28;20054;-78
2022/04/11 12:14:08;;;;;;;30.77;28.65;;;12.90;98.80;;;;;;4968374;28;20674;-76
2022/04/11 12:16:39;;;;;;;28.98;27.20;;;12.70;98.30;;;;;;4978863;28;20511;-78
2022/04/11 12:19:06;;;;;;;28.85;27.08;;;12.70;98.00;;;;;;4978343;28;20050;-78
2022/04/11 12:21:38;;;;;;;29.63;27.63;;;12.70;98.10;;;;;;4977152;28;20054;-77
2022/04/11 12:24:08;;;;;;;29.17;27.40;;;12.80;98.60;;;;;;4979338;28;20047;-76
2022/04/11 12:26:37;;;;;;;29.88;27.98;;;13.20;99.60;;;;;;4976546;28;20056;-76
2022/04/11 12:29:11;;;;;;;29.60;27.80;;;13.30;98.60;;;;;;4979039;28;20042;-77
2022/04/11 12:31:39;;;;;;;30.45;28.33;;;13.30;98.70;;;;;;4977738;28;20114;-77
2022/04/11 12:34:11;;;;;;;27.33;25.67;;;13.40;97.90;;;;;;4974531;28;20236;-77
2022/04/11 12:37:00;;;;;;;28.48;26.48;;;13.50;97.20;;;;;;4977204;28;20049;-77
2022/04/11 12:39:26;;;;;;;28.55;26.63;;;13.30;96.10;;;;;;4978659;28;20061;-77
2022/04/11 12:41:55;;;;;;;28.73;27.02;;;13.10;97.60;;;;;;4978242;28;20054;-75
2022/04/11 12:44:36;;;;;;;28.20;26.42;;;13.50;99.70;;;;;;5024947;22;20053;-70
2022/04/11 12:47:04;;;;;;;28.85;27.05;;;13.40;98.50;;;;;;5015310;28;20088;-71